AirNav   Pilot Hours Calculator
 
 1523 users online  

FD05 Mariners Hospital Heliport
Tavernier, Florida, USA

GOING TO TAVERNIER?


FAA INFORMATION EFFECTIVE 02 JANUARY 2020

Location

FAA Identifier: FD05
Lat/Long: 25-00-24.8800N 080-31-20.3800W
25-00.414667N 080-31.339667W
25.0069111,-80.5223278
(estimated)
Elevation: 9 ft. / 3 m (estimated)
Variation: 02W (1985)
Time zone: UTC -5 (UTC -4 during Daylight Saving Time)
Zip code: 33070

Heliport Operations

Heliport use: Private use, MEDICAL USE
Activation date: 01/1990
Control tower: no
ARTCC: MIAMI CENTER
FSS: MIAMI FLIGHT SERVICE STATION
Attendance: ON CALL
Wind indicator: lighted
Segmented circle: no
Lights: FOR PERIMETER LGTS CALL 305-852-4418.

Nearby radio navigation aids

NDB name  Hdg/Dist  Freq  Var  ID
MARATHON064/35.926004WMTH -- - ....

Heliport Services

Runway Information

Helipad H1

Dimensions: 40 x 40 ft. / 12 x 12 m
Surface: concrete
Runway edge lights: PERI
Latitude: 25-00.414667N
Longitude: 080-31.339667W
Elevation: 9.0 ft.
Traffic pattern: leftleft

Heliport Ownership and Management from official FAA records

Ownership: Privately-owned
Owner: MARINERS HOSPITAL, INC.
91500 OVERSEAS HWY
TAVERNIER, FL 33070
Phone 305-434-3000
Manager: KIMBERLY HYSONG
91500 OVERSEAS HWY
TAVERNIER, FL 33070
Phone (305) 434-1615
EXT 41193.

Additional Remarks

A52-H1 TREES & PLINE WEST; ANTENNAES SE.
FOR CD CTC MIAMI ARTCC AT 305-716-1731.

Instrument Procedures

There are no published instrument procedures at FD05.

Some nearby airports with instrument procedures:

07FA - Ocean Reef Club Airport (23 nm NE)
X51 - Miami Homestead General Aviation Airport (30 nm N)
KHST - Homestead Air Reserve Base (30 nm N)
KMTH - The Florida Keys Marathon International Airport (33 nm SW)
KTMB - Miami Executive Airport (39 nm N)
 
Loc | Ops | Rwys | IFR | FBO | Links
Com | Nav | Svcs | Stats | Notes

Reliance Aviation
AirBoss

 
Area around FD05 (Mariners Hospital Heliport)
 
Road maps at: MapQuest Bing Google
 
Aerial photo
No photo
 
Sectional chart

 
Airport distance calculator
Flying to Mariners Hospital Heliport? Find the distance to fly.

From to FD05

Sunrise and sunset
Times for 23-Jan-2020
 Local
(UTC-5)
 Zulu
(UTC)
Morning civil twilight06:4511:45
Sunrise07:0912:09
Sunset17:5922:59
Evening civil twilight18:2323:23

Current date and time
Zulu (UTC)  23-Jan-2020 23:14:45
Local (UTC-5)  23-Jan-2020 18:14:45
 
METAR
KHST 
29nm N 
232256Z AUTO 01010KT 10SM FEW044 OVC055 20/18 A2997 RMK AO2 RAB18E31DZB31E40 SLPNO P0000 T02010180 $
KMTH 
33nm SW 
232253Z AUTO 00000KT 10SM CLR 20/16 A2997 RMK AO2 SLP147 T02000156 $
KTMB 
39nm N 
232253Z 05011KT 9SM -RA OVC048 19/18 A3000 RMK AO2 SLP158 P0000 T01940183
KMIA 
48nm N 
232253Z 34004KT 10SM -RA FEW020 BKN028 OVC040 21/17 A3000 RMK AO2 RAB02 SLP159 P0008 T02110172 $
TAF
KHST 
29nm N 
232000Z 2320/2502 07008KT 9999 FEW035 QNH2996INS BECMG 2320/2321 08010KT 9999 SCT025 BKN040 QNH2997INS BECMG 2405/2406 10006KT 8000 -SHRA BKN020 BKN040 QNH2998INS BECMG 2414/2415 09012KT 9999 NSW BKN030 QNH2999INS TX25/2320Z TN13/2412Z
KMTH 
33nm SW 
231747Z 2318/2418 02008KT P6SM FEW025 FM232300 06006KT P6SM SCT025 FM240600 VRB05KT P6SM SCT015 BKN025 FM240800 VRB05KT 4SM BR OVC100 FM241500 VRB05KT P6SM SCT025
NOTAMs
Click for the latest NOTAMs
NOTAMs are issued by the DoD/FAA and will open in a separate window not controlled by AirNav.

 

 
 

Would you like to see your business listed on this page?

 If your business provides an interesting product or service to pilots, flight crews, aircraft, or users of the Mariners Hospital Heliport, you should consider listing it here.  To start the listing process, click on the button below
 
Add a business
 

Other Pages about Mariners Hospital Heliport

Update a link
 
Copyright © AirNav, LLC. All rights reserved. Privacy Policy  Contact